ADDS TAF Board (Experimental) INFO

IDs: Format: Expanded Condensed

Updated at: 1508 UTC 23 Oct 2014

KLAX - Los Angeles Intl, CA, US

Issued at 1432 UTC 23 Oct 2014
Time1453Z23/16Z23/17Z23/18Z23/19Z23/20Z23/21Z23/22Z23/23Z24/00Z24/01Z24/02Z24/03Z24/04Z
TypeOBSPRVLPRVLPRVLPRVLPRVLPRVLPRVLPRVLPRVLPRVLPRVLPRVLPRVL
VIS10>6>6>6>6>6>6>6>6>6>6>6>6>6
CIG----------------------------
CoverSCTFEWFEWFEWSKCSKCSKCSKCSKCSKCSKCSKCSKCSKC
FltCat--VFRVFRVFRVFRVFRVFRVFRVFRVFRVFRVFRVFRVFR
WX----------------------------
WDirVRBVRBVRBVRB260260260260260260260260250250
WSpd3000121212121212121266
WGst----------------------------
R06/24
XWndVRBVRBVRBVRB-1-1-1-1-1-1-1-1-1-1
HWndVRBVRBVRBVRB-12-12-12-12-12-12-12-12-6-6
R07/25
XWndVRBVRBVRBVRB-1-1-1-1-1-1-1-1-1-1
HWndVRBVRBVRBVRB-12-12-12-12-12-12-12-12-6-6
Raw TAF
KLAX 231432Z 2315/2418 00000KT P6SM FEW250
  FM231900 26012KT P6SM SKC
  FM240300 25006KT P6SM SKC
  FM240800 VRB03KT P6SM SKC
  FM241700 26008KT P6SM SKC


Raw METAR
KLAX 231453Z VRB03KT 10SM FEW180 SCT250 18/13 A2997 RMK AO2 SLP146 T01830128 53012 $

TAF Board Legend

Hazard VFR MVFR IFR LIFR
Visibility (sm) >5 3≤X≤5 1≤X<3 <1
Ceiling (100 ft) >30 10≤X≤30 5≤X<10 <5
Wind Speed (kt) <10 10≤X<20 20≤X<30 ≥30
Wind Gust (kt) <15 15≤X<25 25≤X<35 ≥35
Weather No Wx Reported VCTS,-TS,-FZRA TS,FZRA +TS,+FZRA


Page loaded:  15:08 UTC  |   08:08 AM Pacific  |   09:08 AM Mountain  |   10:08 AM Central  |   11:08 AM Eastern

 

ADVISORIES

FORECASTS

FORECASTS

OBSERVATIONS

USER TOOLS

ABOUT US